createdAt,value
2018-12-16T00:04:37.753Z,48.09
2018-12-16T00:09:41.049Z,47.70
2018-12-16T00:14:44.365Z,47.74
2018-12-16T00:19:47.690Z,48.19
2018-12-16T00:24:51.014Z,48.20
2018-12-16T00:29:54.325Z,48.33
2018-12-16T00:34:57.675Z,47.89
2018-12-16T00:40:01.098Z,47.92
2018-12-16T00:45:04.837Z,48.15
2018-12-16T00:50:08.136Z,48.09
2018-12-16T00:55:11.426Z,48.37
2018-12-16T01:00:15.525Z,48.23
2018-12-16T01:05:18.852Z,48.53
2018-12-16T01:10:22.165Z,48.54
2018-12-16T01:15:25.481Z,48.66
2018-12-16T01:20:28.813Z,48.73
2018-12-16T01:25:32.128Z,48.63
2018-12-16T01:30:35.441Z,48.33
2018-12-16T01:35:38.746Z,48.76
2018-12-16T01:40:42.062Z,48.67
2018-12-16T01:45:45.375Z,48.55
2018-12-16T01:50:48.689Z,48.57
2018-12-16T01:55:51.993Z,48.60
2018-12-16T02:00:55.297Z,48.69
2018-12-16T02:05:58.604Z,48.78
2018-12-16T02:11:01.921Z,48.52
2018-12-16T02:16:05.262Z,48.53
2018-12-16T02:21:08.562Z,48.62
2018-12-16T02:26:11.877Z,48.56
2018-12-16T02:31:15.188Z,48.61
2018-12-16T02:36:18.511Z,48.94
2018-12-16T02:41:21.813Z,48.88
2018-12-16T02:46:25.117Z,49.09
2018-12-16T02:51:28.426Z,48.93
2018-12-16T02:56:32.766Z,48.63
2018-12-16T03:01:36.088Z,48.97
2018-12-16T03:06:39.382Z,49.14
2018-12-16T03:11:42.685Z,48.80
2018-12-16T03:16:45.995Z,48.93
2018-12-16T03:21:49.302Z,48.82
2018-12-16T03:26:52.601Z,49.00
2018-12-16T03:31:55.916Z,48.92
2018-12-16T03:36:59.222Z,49.08
2018-12-16T03:42:02.528Z,49.21
2018-12-16T03:47:05.834Z,49.15
2018-12-16T03:52:09.151Z,49.36
2018-12-16T03:57:12.477Z,49.18
2018-12-16T04:02:15.806Z,49.16
2018-12-16T04:07:19.121Z,49.33
2018-12-16T04:12:22.440Z,49.12
2018-12-16T04:17:25.753Z,49.26
2018-12-16T04:22:29.064Z,49.49
2018-12-16T04:27:32.394Z,49.78
2018-12-16T04:32:35.706Z,49.53
2018-12-16T04:37:39.027Z,49.34
2018-12-16T04:42:42.336Z,49.28
2018-12-16T04:47:45.648Z,49.59
2018-12-16T04:52:48.953Z,49.48
2018-12-16T04:57:52.266Z,49.42
2018-12-16T05:02:55.581Z,49.37
2018-12-16T05:07:58.970Z,49.29
2018-12-16T05:13:02.285Z,49.55
2018-12-16T05:18:05.596Z,49.56
2018-12-16T05:23:08.902Z,49.36
2018-12-16T05:28:12.217Z,49.79
2018-12-16T05:33:15.534Z,49.68
2018-12-16T05:38:18.844Z,49.68
2018-12-16T05:43:22.150Z,49.97
2018-12-16T05:48:25.445Z,49.63
2018-12-16T05:53:28.857Z,49.72
2018-12-16T05:58:32.142Z,49.74
2018-12-16T06:03:35.430Z,50.07
2018-12-16T06:08:38.737Z,50.04
2018-12-16T06:13:42.039Z,50.12
2018-12-16T06:18:45.454Z,50.01
2018-12-16T06:23:55.351Z,50.12
2018-12-16T06:28:54.057Z,49.81
2018-12-16T06:33:57.358Z,49.70
2018-12-16T06:39:00.663Z,49.86
2018-12-16T06:44:03.969Z,49.92
2018-12-16T06:49:07.278Z,49.81
2018-12-16T06:54:10.569Z,50.13
2018-12-16T06:59:13.853Z,50.05
2018-12-16T07:04:17.145Z,50.01
2018-12-16T07:09:20.435Z,50.46
2018-12-16T07:14:23.735Z,50.26
2018-12-16T07:19:27.026Z,50.64
2018-12-16T07:24:31.413Z,50.68
2018-12-16T07:29:34.701Z,50.85
2018-12-16T07:34:38.020Z,50.94
2018-12-16T07:39:41.325Z,51.26
2018-12-16T07:44:44.639Z,51.11
2018-12-16T07:49:48.035Z,51.29
2018-12-16T07:54:51.334Z,51.47
2018-12-16T07:59:54.627Z,51.04
2018-12-16T08:04:57.983Z,39.90
2018-12-16T08:10:01.299Z,29.50
2018-12-16T08:15:06.734Z,30.31
2018-12-16T08:20:10.057Z,34.16
2018-12-16T08:25:13.362Z,31.89
2018-12-16T08:30:16.665Z,33.52
2018-12-16T08:35:19.971Z,34.31
2018-12-16T08:40:23.293Z,35.19
2018-12-16T08:45:26.605Z,36.37
2018-12-16T08:50:29.901Z,36.85
2018-12-16T08:55:33.201Z,39.08
2018-12-16T09:00:36.505Z,39.04
2018-12-16T09:05:39.809Z,39.74
2018-12-16T09:10:43.112Z,40.23
2018-12-16T09:15:46.524Z,40.88
2018-12-16T09:20:49.829Z,41.55
2018-12-16T09:25:53.130Z,41.90
2018-12-16T09:30:58.155Z,42.57
2018-12-16T09:36:01.686Z,42.73
2018-12-16T09:41:04.994Z,42.90
2018-12-16T09:46:08.357Z,43.48
2018-12-16T09:51:11.687Z,43.63
2018-12-16T09:56:15.012Z,43.74
2018-12-16T10:01:18.433Z,44.04
2018-12-16T10:06:21.784Z,44.04
2018-12-16T10:11:25.100Z,44.06
2018-12-16T10:16:28.397Z,44.20
2018-12-16T10:21:31.710Z,44.64
2018-12-16T10:26:35.082Z,44.46
2018-12-16T10:31:38.398Z,45.07
2018-12-16T10:36:41.700Z,45.05
2018-12-16T10:41:45.019Z,45.25
2018-12-16T10:46:48.437Z,45.39
2018-12-16T10:51:51.742Z,45.50
2018-12-16T10:56:55.049Z,45.50
2018-12-16T11:01:58.370Z,45.50
2018-12-16T11:07:01.685Z,45.65
2018-12-16T11:12:05.153Z,45.22
2018-12-16T11:17:09.397Z,45.12
2018-12-16T11:22:12.693Z,45.36
2018-12-16T11:27:16.018Z,45.43
2018-12-16T11:32:19.321Z,45.12
2018-12-16T11:37:22.639Z,45.22
2018-12-16T11:42:25.950Z,45.08
2018-12-16T11:47:29.258Z,45.47
2018-12-16T11:52:32.570Z,45.51
2018-12-16T11:57:35.883Z,45.85
2018-12-16T12:02:39.202Z,45.96
2018-12-16T12:07:42.509Z,45.35
2018-12-16T12:12:45.875Z,45.95
2018-12-16T12:17:49.199Z,45.59
2018-12-16T12:22:52.593Z,45.91
2018-12-16T12:27:55.925Z,46.25
2018-12-16T12:32:59.376Z,45.20
2018-12-16T12:38:02.695Z,44.79
2018-12-16T12:43:06.013Z,44.60
2018-12-16T12:48:09.333Z,43.84
2018-12-16T12:53:12.658Z,37.72
2018-12-16T12:58:15.994Z,37.45
2018-12-16T13:03:19.311Z,33.80
2018-12-16T13:08:22.613Z,30.83
2018-12-16T13:13:25.922Z,32.88
2018-12-16T13:18:29.228Z,33.67
2018-12-16T13:23:32.543Z,34.42
2018-12-16T13:28:35.857Z,34.93
2018-12-16T13:33:39.178Z,36.07
2018-12-16T13:38:42.481Z,36.88
2018-12-16T13:43:45.782Z,37.15
2018-12-16T13:48:49.089Z,37.53
2018-12-16T13:53:54.083Z,38.19
2018-12-16T13:58:57.398Z,38.88
2018-12-16T14:04:07.042Z,38.75
2018-12-16T14:09:10.345Z,39.79
2018-12-16T14:14:13.646Z,40.09
2018-12-16T14:19:16.963Z,40.14
2018-12-16T14:24:20.286Z,40.00
2018-12-16T14:29:23.594Z,40.39
2018-12-16T14:34:26.900Z,40.80
2018-12-16T14:39:30.201Z,41.00
2018-12-16T14:44:33.506Z,41.34
2018-12-16T14:49:36.820Z,41.58
2018-12-16T14:54:40.201Z,41.60
2018-12-16T14:59:43.556Z,41.47
2018-12-16T15:04:46.938Z,41.71
2018-12-16T15:09:50.241Z,41.89
2018-12-16T15:14:53.537Z,41.82
2018-12-16T15:19:56.857Z,42.29
2018-12-16T15:25:00.161Z,42.23
2018-12-16T15:30:03.689Z,42.31
2018-12-16T15:35:06.997Z,42.75
2018-12-16T15:40:10.475Z,43.06
2018-12-16T15:45:14.218Z,42.95
2018-12-16T15:50:17.717Z,43.31
2018-12-16T15:55:21.021Z,43.20
2018-12-16T16:00:26.138Z,43.22
2018-12-16T16:05:29.462Z,43.59
2018-12-16T16:10:33.289Z,43.63
2018-12-16T16:15:36.631Z,43.40
2018-12-16T16:20:39.928Z,43.96
2018-12-16T16:25:43.222Z,43.81
2018-12-16T16:30:46.522Z,44.34
2018-12-16T16:35:49.825Z,44.62
2018-12-16T16:40:53.494Z,44.50
2018-12-16T16:45:56.793Z,44.69
2018-12-16T16:51:00.118Z,44.33
2018-12-16T16:56:03.613Z,44.50
2018-12-16T17:01:06.950Z,44.35
2018-12-16T17:06:10.329Z,44.37
2018-12-16T17:11:14.121Z,44.53
2018-12-16T17:16:17.497Z,44.69
2018-12-16T17:21:20.821Z,44.67
2018-12-16T17:26:29.851Z,44.74
2018-12-16T17:31:29.451Z,44.96
2018-12-16T17:36:32.776Z,44.76
2018-12-16T17:41:36.110Z,45.16
2018-12-16T17:46:39.430Z,44.64
2018-12-16T17:51:42.733Z,44.84
2018-12-16T17:56:46.044Z,44.98
2018-12-16T18:01:49.620Z,44.81
2018-12-16T18:06:52.949Z,45.12
2018-12-16T18:11:56.250Z,44.50
2018-12-16T18:17:00.538Z,44.64
2018-12-16T18:22:03.861Z,44.83
2018-12-16T18:27:07.182Z,44.95
2018-12-16T18:32:10.494Z,45.34
2018-12-16T18:37:13.838Z,46.03
2018-12-16T18:42:17.154Z,46.40
2018-12-16T18:47:20.462Z,45.86
2018-12-16T18:52:23.771Z,46.38
2018-12-16T18:57:27.106Z,46.55
2018-12-16T19:02:30.412Z,46.20
2018-12-16T19:07:33.717Z,46.21
2018-12-16T19:12:37.049Z,46.24
2018-12-16T19:17:40.437Z,46.36
2018-12-16T19:22:43.749Z,46.31
2018-12-16T19:27:47.096Z,46.18
2018-12-16T19:32:50.402Z,46.16
2018-12-16T19:37:53.725Z,46.63
2018-12-16T19:42:57.241Z,46.27
2018-12-16T19:48:00.545Z,46.43
2018-12-16T19:53:03.849Z,46.46
2018-12-16T19:58:08.138Z,46.32
2018-12-16T20:03:11.469Z,46.70
2018-12-16T20:08:14.760Z,46.27
2018-12-16T20:13:18.995Z,46.32
2018-12-16T20:18:22.297Z,46.65
2018-12-16T20:23:25.590Z,46.73
2018-12-16T20:28:28.921Z,46.41
2018-12-16T20:33:32.241Z,46.32
2018-12-16T20:38:35.554Z,46.44
2018-12-16T20:43:38.870Z,46.20
2018-12-16T20:48:42.184Z,46.70
2018-12-16T20:53:45.506Z,46.09
2018-12-16T20:58:48.824Z,46.01
2018-12-16T21:03:52.135Z,46.28
2018-12-16T21:08:55.458Z,46.53
2018-12-16T21:14:04.133Z,46.51
2018-12-16T21:19:07.449Z,46.15
2018-12-16T21:24:10.846Z,46.27
2018-12-16T21:29:14.150Z,46.40
2018-12-16T21:34:17.445Z,46.40
2018-12-16T21:39:20.917Z,46.36
2018-12-16T21:44:24.230Z,46.23
2018-12-16T21:49:27.533Z,46.26
2018-12-16T21:54:30.856Z,46.47
2018-12-16T21:59:34.439Z,46.17
2018-12-16T22:04:37.801Z,46.42
2018-12-16T22:09:41.185Z,46.24
2018-12-16T22:14:44.501Z,46.30
2018-12-16T22:19:47.817Z,46.61
2018-12-16T22:24:51.123Z,46.34
2018-12-16T22:29:54.436Z,46.18
2018-12-16T22:34:57.741Z,46.14
2018-12-16T22:40:01.054Z,46.31
2018-12-16T22:45:05.805Z,46.37
2018-12-16T22:50:09.118Z,46.25
2018-12-16T22:55:12.437Z,46.38
2018-12-16T23:00:17.823Z,46.52
2018-12-16T23:05:21.145Z,46.21
2018-12-16T23:10:24.445Z,46.17
2018-12-16T23:15:27.750Z,46.42
2018-12-16T23:20:31.058Z,46.36
2018-12-16T23:25:34.372Z,46.38
2018-12-16T23:30:37.773Z,46.57
2018-12-16T23:35:41.144Z,46.97
2018-12-16T23:40:44.451Z,46.24
2018-12-16T23:45:47.753Z,46.48
2018-12-16T23:50:51.370Z,46.81
2018-12-16T23:55:54.687Z,47.04
